sensor_id;sensor_type;location;lat;lon;timestamp;temperature;humidity
62339;DHT22;48368;53.406;6.214;2023-04-03T00:01:13;3.10;99.90
62339;DHT22;48368;53.406;6.214;2023-04-03T00:03:39;3.10;99.90
62339;DHT22;48368;53.406;6.214;2023-04-03T00:06:06;3.10;99.90
62339;DHT22;48368;53.406;6.214;2023-04-03T00:08:34;3.10;99.90
62339;DHT22;48368;53.406;6.214;2023-04-03T00:11:00;3.00;99.90
62339;DHT22;48368;53.406;6.214;2023-04-03T00:13:26;3.00;99.90
62339;DHT22;48368;53.406;6.214;2023-04-03T00:15:52;3.00;99.90
62339;DHT22;48368;53.406;6.214;2023-04-03T00:18:18;2.90;99.90
62339;DHT22;48368;53.406;6.214;2023-04-03T00:20:43;2.90;99.90
62339;DHT22;48368;53.406;6.214;2023-04-03T00:23:09;3.00;99.90
62339;DHT22;48368;53.406;6.214;2023-04-03T00:25:35;2.90;99.90
62339;DHT22;48368;53.406;6.214;2023-04-03T00:28:02;2.90;99.90
62339;DHT22;48368;53.406;6.214;2023-04-03T00:30:28;2.90;99.90
62339;DHT22;48368;53.406;6.214;2023-04-03T00:32:53;2.80;99.90
62339;DHT22;48368;53.406;6.214;2023-04-03T00:35:20;2.70;99.90
62339;DHT22;48368;53.406;6.214;2023-04-03T00:37:47;2.70;99.90
62339;DHT22;48368;53.406;6.214;2023-04-03T00:40:14;2.70;99.90
62339;DHT22;48368;53.406;6.214;2023-04-03T00:42:43;2.70;99.90
62339;DHT22;48368;53.406;6.214;2023-04-03T00:47:43;2.60;99.90
62339;DHT22;48368;53.406;6.214;2023-04-03T00:50:10;2.60;99.90
62339;DHT22;48368;53.406;6.214;2023-04-03T00:52:37;2.60;99.90
62339;DHT22;48368;53.406;6.214;2023-04-03T00:55:06;2.60;99.90
62339;DHT22;48368;53.406;6.214;2023-04-03T00:57:33;2.50;99.90
62339;DHT22;48368;53.406;6.214;2023-04-03T01:00:10;2.50;99.90
62339;DHT22;48368;53.406;6.214;2023-04-03T01:02:37;2.50;99.90
62339;DHT22;48368;53.406;6.214;2023-04-03T01:05:04;2.40;99.90
62339;DHT22;48368;53.406;6.214;2023-04-03T01:07:31;2.50;99.90
62339;DHT22;48368;53.406;6.214;2023-04-03T01:10:02;2.40;99.90
62339;DHT22;48368;53.406;6.214;2023-04-03T01:12:37;2.40;99.90
62339;DHT22;48368;53.406;6.214;2023-04-03T01:15:07;2.40;99.90
62339;DHT22;48368;53.406;6.214;2023-04-03T01:17:48;2.40;99.90
62339;DHT22;48368;53.406;6.214;2023-04-03T01:28:10;2.20;99.90
62339;DHT22;48368;53.406;6.214;2023-04-03T01:30:54;2.20;99.90
62339;DHT22;48368;53.406;6.214;2023-04-03T01:33:23;2.20;99.90
62339;DHT22;48368;53.406;6.214;2023-04-03T01:35:48;2.10;99.90
62339;DHT22;48368;53.406;6.214;2023-04-03T01:38:14;2.10;99.90
62339;DHT22;48368;53.406;6.214;2023-04-03T01:40:40;2.10;99.90
62339;DHT22;48368;53.406;6.214;2023-04-03T01:43:05;2.00;99.90
62339;DHT22;48368;53.406;6.214;2023-04-03T01:45:31;2.00;99.90
62339;DHT22;48368;53.406;6.214;2023-04-03T01:47:57;2.00;99.90
62339;DHT22;48368;53.406;6.214;2023-04-03T01:50:22;2.00;99.90
62339;DHT22;48368;53.406;6.214;2023-04-03T01:52:48;1.90;99.90
62339;DHT22;48368;53.406;6.214;2023-04-03T01:55:14;1.90;99.90
62339;DHT22;48368;53.406;6.214;2023-04-03T01:57:40;1.90;99.90
62339;DHT22;48368;53.406;6.214;2023-04-03T02:00:06;1.90;99.90
62339;DHT22;48368;53.406;6.214;2023-04-03T02:02:33;1.90;99.90
62339;DHT22;48368;53.406;6.214;2023-04-03T02:04:59;1.80;99.90
62339;DHT22;48368;53.406;6.214;2023-04-03T02:07:24;1.80;99.90
62339;DHT22;48368;53.406;6.214;2023-04-03T02:09:50;1.80;99.90
62339;DHT22;48368;53.406;6.214;2023-04-03T02:12:16;1.80;99.90
62339;DHT22;48368;53.406;6.214;2023-04-03T02:14:41;1.80;99.90
62339;DHT22;48368;53.406;6.214;2023-04-03T02:17:07;1.80;99.90
62339;DHT22;48368;53.406;6.214;2023-04-03T02:19:37;1.70;99.90
62339;DHT22;48368;53.406;6.214;2023-04-03T02:22:03;1.70;99.90
62339;DHT22;48368;53.406;6.214;2023-04-03T02:24:29;1.70;99.90
62339;DHT22;48368;53.406;6.214;2023-04-03T02:26:55;1.70;99.90
62339;DHT22;48368;53.406;6.214;2023-04-03T02:29:21;1.60;99.90
62339;DHT22;48368;53.406;6.214;2023-04-03T02:31:47;1.60;99.90
62339;DHT22;48368;53.406;6.214;2023-04-03T02:34:12;1.50;99.90
62339;DHT22;48368;53.406;6.214;2023-04-03T02:36:38;1.50;99.90
62339;DHT22;48368;53.406;6.214;2023-04-03T02:39:04;1.50;99.90
62339;DHT22;48368;53.406;6.214;2023-04-03T02:41:30;1.50;99.90
62339;DHT22;48368;53.406;6.214;2023-04-03T02:44:05;1.40;99.90
62339;DHT22;48368;53.406;6.214;2023-04-03T02:46:31;1.40;99.90
62339;DHT22;48368;53.406;6.214;2023-04-03T02:48:57;1.40;99.90
62339;DHT22;48368;53.406;6.214;2023-04-03T02:51:23;1.40;99.90
62339;DHT22;48368;53.406;6.214;2023-04-03T02:53:49;1.30;99.90
62339;DHT22;48368;53.406;6.214;2023-04-03T02:56:15;1.30;99.90
62339;DHT22;48368;53.406;6.214;2023-04-03T02:58:42;1.30;99.90
62339;DHT22;48368;53.406;6.214;2023-04-03T03:01:08;1.30;99.90
62339;DHT22;48368;53.406;6.214;2023-04-03T03:03:37;1.20;99.90
62339;DHT22;48368;53.406;6.214;2023-04-03T03:06:04;1.20;99.90
62339;DHT22;48368;53.406;6.214;2023-04-03T03:08:29;1.20;99.90
62339;DHT22;48368;53.406;6.214;2023-04-03T03:10:55;1.10;99.90
62339;DHT22;48368;53.406;6.214;2023-04-03T03:13:21;1.10;99.90
62339;DHT22;48368;53.406;6.214;2023-04-03T03:15:46;1.10;99.90
62339;DHT22;48368;53.406;6.214;2023-04-03T03:18:12;1.10;99.90
62339;DHT22;48368;53.406;6.214;2023-04-03T03:20:37;1.10;99.90
62339;DHT22;48368;53.406;6.214;2023-04-03T03:23:03;1.10;99.90
62339;DHT22;48368;53.406;6.214;2023-04-03T03:25:29;1.10;99.90
62339;DHT22;48368;53.406;6.214;2023-04-03T03:27:54;1.10;99.90
62339;DHT22;48368;53.406;6.214;2023-04-03T03:30:20;1.00;99.90
62339;DHT22;48368;53.406;6.214;2023-04-03T03:32:46;1.00;99.90
62339;DHT22;48368;53.406;6.214;2023-04-03T03:35:11;1.00;99.90
62339;DHT22;48368;53.406;6.214;2023-04-03T03:37:37;1.00;99.90
62339;DHT22;48368;53.406;6.214;2023-04-03T03:40:03;0.90;99.90
62339;DHT22;48368;53.406;6.214;2023-04-03T03:42:28;0.90;99.90
62339;DHT22;48368;53.406;6.214;2023-04-03T03:44:54;0.90;99.90
62339;DHT22;48368;53.406;6.214;2023-04-03T03:47:20;0.90;99.90
62339;DHT22;48368;53.406;6.214;2023-04-03T03:49:46;0.90;99.90
62339;DHT22;48368;53.406;6.214;2023-04-03T03:52:11;0.80;99.90
62339;DHT22;48368;53.406;6.214;2023-04-03T03:54:37;0.80;99.90
62339;DHT22;48368;53.406;6.214;2023-04-03T03:57:03;0.80;99.90
62339;DHT22;48368;53.406;6.214;2023-04-03T03:59:29;0.80;99.90
62339;DHT22;48368;53.406;6.214;2023-04-03T04:01:54;0.80;99.90
62339;DHT22;48368;53.406;6.214;2023-04-03T04:04:21;0.80;99.90
62339;DHT22;48368;53.406;6.214;2023-04-03T04:06:46;0.80;99.90
62339;DHT22;48368;53.406;6.214;2023-04-03T04:09:12;0.80;99.90
62339;DHT22;48368;53.406;6.214;2023-04-03T04:11:38;0.80;99.90
62339;DHT22;48368;53.406;6.214;2023-04-03T04:14:05;0.80;99.90
62339;DHT22;48368;53.406;6.214;2023-04-03T04:16:31;0.80;99.90
62339;DHT22;48368;53.406;6.214;2023-04-03T04:18:57;0.80;99.90
62339;DHT22;48368;53.406;6.214;2023-04-03T04:21:22;0.80;99.90
62339;DHT22;48368;53.406;6.214;2023-04-03T04:23:48;0.80;99.90
62339;DHT22;48368;53.406;6.214;2023-04-03T04:26:13;0.80;99.90
62339;DHT22;48368;53.406;6.214;2023-04-03T04:28:39;0.80;99.90
62339;DHT22;48368;53.406;6.214;2023-04-03T04:31:07;0.70;99.90
62339;DHT22;48368;53.406;6.214;2023-04-03T04:33:35;0.70;99.90
62339;DHT22;48368;53.406;6.214;2023-04-03T04:36:01;0.70;99.90
62339;DHT22;48368;53.406;6.214;2023-04-03T04:38:26;0.70;99.90
62339;DHT22;48368;53.406;6.214;2023-04-03T04:40:52;0.60;99.90
62339;DHT22;48368;53.406;6.214;2023-04-03T04:43:18;0.60;99.90
62339;DHT22;48368;53.406;6.214;2023-04-03T04:45:43;0.60;99.90
62339;DHT22;48368;53.406;6.214;2023-04-03T04:48:09;0.60;99.90
62339;DHT22;48368;53.406;6.214;2023-04-03T04:50:34;0.60;99.90
62339;DHT22;48368;53.406;6.214;2023-04-03T04:53:00;0.70;99.90
62339;DHT22;48368;53.406;6.214;2023-04-03T04:55:26;0.60;99.90
62339;DHT22;48368;53.406;6.214;2023-04-03T04:57:51;0.60;99.90
62339;DHT22;48368;53.406;6.214;2023-04-03T05:00:17;0.60;99.90
62339;DHT22;48368;53.406;6.214;2023-04-03T05:02:43;0.60;99.90
62339;DHT22;48368;53.406;6.214;2023-04-03T05:05:09;0.60;99.90
62339;DHT22;48368;53.406;6.214;2023-04-03T05:07:34;0.60;99.90
62339;DHT22;48368;53.406;6.214;2023-04-03T05:10:02;0.60;99.90
62339;DHT22;48368;53.406;6.214;2023-04-03T05:12:28;0.60;99.90
62339;DHT22;48368;53.406;6.214;2023-04-03T05:14:53;0.60;99.90
62339;DHT22;48368;53.406;6.214;2023-04-03T05:17:19;0.60;99.90
62339;DHT22;48368;53.406;6.214;2023-04-03T05:19:45;0.60;99.90
62339;DHT22;48368;53.406;6.214;2023-04-03T05:22:11;0.70;99.90
62339;DHT22;48368;53.406;6.214;2023-04-03T05:24:36;0.70;99.90
62339;DHT22;48368;53.406;6.214;2023-04-03T05:27:02;0.70;99.90
62339;DHT22;48368;53.406;6.214;2023-04-03T05:29:31;0.70;99.90
62339;DHT22;48368;53.406;6.214;2023-04-03T05:32:00;0.70;99.90
62339;DHT22;48368;53.406;6.214;2023-04-03T05:34:25;0.70;99.90
62339;DHT22;48368;53.406;6.214;2023-04-03T05:36:51;0.80;99.90
62339;DHT22;48368;53.406;6.214;2023-04-03T05:39:17;0.80;99.90
62339;DHT22;48368;53.406;6.214;2023-04-03T05:41:42;0.80;99.90
62339;DHT22;48368;53.406;6.214;2023-04-03T05:44:08;0.90;99.90
62339;DHT22;48368;53.406;6.214;2023-04-03T05:46:34;1.00;99.90
62339;DHT22;48368;53.406;6.214;2023-04-03T05:48:59;1.10;99.90
62339;DHT22;48368;53.406;6.214;2023-04-03T05:51:30;1.20;99.90
62339;DHT22;48368;53.406;6.214;2023-04-03T05:54:12;1.20;99.90
62339;DHT22;48368;53.406;6.214;2023-04-03T05:56:39;1.30;99.90
62339;DHT22;48368;53.406;6.214;2023-04-03T05:59:05;1.40;99.90
62339;DHT22;48368;53.406;6.214;2023-04-03T06:01:30;1.50;99.90
62339;DHT22;48368;53.406;6.214;2023-04-03T06:03:56;1.50;99.90
62339;DHT22;48368;53.406;6.214;2023-04-03T06:06:24;1.50;99.90
62339;DHT22;48368;53.406;6.214;2023-04-03T06:08:49;1.60;99.90
62339;DHT22;48368;53.406;6.214;2023-04-03T06:11:18;1.60;99.90
62339;DHT22;48368;53.406;6.214;2023-04-03T06:13:44;1.70;99.90
62339;DHT22;48368;53.406;6.214;2023-04-03T06:16:14;1.70;99.90
62339;DHT22;48368;53.406;6.214;2023-04-03T06:18:40;1.80;99.90
62339;DHT22;48368;53.406;6.214;2023-04-03T06:21:06;1.90;99.90
62339;DHT22;48368;53.406;6.214;2023-04-03T06:23:33;1.90;99.90
62339;DHT22;48368;53.406;6.214;2023-04-03T06:25:59;2.00;99.90
62339;DHT22;48368;53.406;6.214;2023-04-03T06:28:25;2.20;99.90
62339;DHT22;48368;53.406;6.214;2023-04-03T06:30:52;2.20;99.90
62339;DHT22;48368;53.406;6.214;2023-04-03T06:33:18;2.40;99.90
62339;DHT22;48368;53.406;6.214;2023-04-03T06:35:43;2.50;99.90
62339;DHT22;48368;53.406;6.214;2023-04-03T06:38:09;2.40;99.90
62339;DHT22;48368;53.406;6.214;2023-04-03T06:40:35;2.60;99.90
62339;DHT22;48368;53.406;6.214;2023-04-03T06:43:01;2.70;99.90
62339;DHT22;48368;53.406;6.214;2023-04-03T06:45:27;2.90;99.90
62339;DHT22;48368;53.406;6.214;2023-04-03T06:47:53;3.00;99.90
62339;DHT22;48368;53.406;6.214;2023-04-03T06:50:19;3.10;99.90
62339;DHT22;48368;53.406;6.214;2023-04-03T06:52:45;3.10;99.90
62339;DHT22;48368;53.406;6.214;2023-04-03T06:55:11;3.10;99.90
62339;DHT22;48368;53.406;6.214;2023-04-03T06:57:37;3.30;99.90
62339;DHT22;48368;53.406;6.214;2023-04-03T07:00:03;3.30;99.90
62339;DHT22;48368;53.406;6.214;2023-04-03T07:02:29;3.40;99.90
62339;DHT22;48368;53.406;6.214;2023-04-03T07:04:55;3.60;99.90
62339;DHT22;48368;53.406;6.214;2023-04-03T07:07:21;3.80;99.90
62339;DHT22;48368;53.406;6.214;2023-04-03T07:09:47;3.90;99.90
62339;DHT22;48368;53.406;6.214;2023-04-03T07:12:13;4.00;99.90
62339;DHT22;48368;53.406;6.214;2023-04-03T07:14:39;4.10;99.90
62339;DHT22;48368;53.406;6.214;2023-04-03T07:17:04;4.20;99.90
62339;DHT22;48368;53.406;6.214;2023-04-03T07:19:30;4.30;99.90
62339;DHT22;48368;53.406;6.214;2023-04-03T07:21:56;4.40;99.90
62339;DHT22;48368;53.406;6.214;2023-04-03T07:24:22;4.40;99.90
62339;DHT22;48368;53.406;6.214;2023-04-03T07:26:53;4.50;99.90
62339;DHT22;48368;53.406;6.214;2023-04-03T07:29:20;4.60;99.90
62339;DHT22;48368;53.406;6.214;2023-04-03T07:31:47;4.70;99.90
62339;DHT22;48368;53.406;6.214;2023-04-03T07:34:13;4.80;99.90
62339;DHT22;48368;53.406;6.214;2023-04-03T07:36:38;4.80;99.90
62339;DHT22;48368;53.406;6.214;2023-04-03T07:39:06;4.90;99.90
62339;DHT22;48368;53.406;6.214;2023-04-03T07:41:33;5.00;99.90
62339;DHT22;48368;53.406;6.214;2023-04-03T07:43:59;4.90;99.90
62339;DHT22;48368;53.406;6.214;2023-04-03T07:46:25;5.10;99.90
62339;DHT22;48368;53.406;6.214;2023-04-03T07:48:51;5.10;99.90
62339;DHT22;48368;53.406;6.214;2023-04-03T07:51:29;5.30;99.90
62339;DHT22;48368;53.406;6.214;2023-04-03T07:53:55;5.40;99.90
62339;DHT22;48368;53.406;6.214;2023-04-03T07:56:21;5.50;99.90
62339;DHT22;48368;53.406;6.214;2023-04-03T07:58:48;5.40;99.90
62339;DHT22;48368;53.406;6.214;2023-04-03T08:01:14;5.60;99.90
62339;DHT22;48368;53.406;6.214;2023-04-03T08:03:40;5.70;99.90
62339;DHT22;48368;53.406;6.214;2023-04-03T08:06:07;5.70;99.90
62339;DHT22;48368;53.406;6.214;2023-04-03T08:08:33;5.90;99.90
62339;DHT22;48368;53.406;6.214;2023-04-03T08:11:00;5.90;99.90
62339;DHT22;48368;53.406;6.214;2023-04-03T08:13:26;6.10;99.90
62339;DHT22;48368;53.406;6.214;2023-04-03T08:15:52;6.30;99.90
62339;DHT22;48368;53.406;6.214;2023-04-03T08:18:18;6.20;99.90
62339;DHT22;48368;53.406;6.214;2023-04-03T08:20:49;6.30;99.90
62339;DHT22;48368;53.406;6.214;2023-04-03T08:23:15;6.20;99.90
62339;DHT22;48368;53.406;6.214;2023-04-03T08:25:43;6.40;99.90
62339;DHT22;48368;53.406;6.214;2023-04-03T08:28:11;6.60;99.90
62339;DHT22;48368;53.406;6.214;2023-04-03T08:30:42;6.60;99.90
62339;DHT22;48368;53.406;6.214;2023-04-03T08:33:08;6.80;99.90
62339;DHT22;48368;53.406;6.214;2023-04-03T08:35:41;6.90;99.90
62339;DHT22;48368;53.406;6.214;2023-04-03T08:38:08;6.80;99.90
62339;DHT22;48368;53.406;6.214;2023-04-03T08:40:34;7.00;99.90
62339;DHT22;48368;53.406;6.214;2023-04-03T08:43:24;6.90;99.90
62339;DHT22;48368;53.406;6.214;2023-04-03T08:45:57;7.00;99.90
62339;DHT22;48368;53.406;6.214;2023-04-03T08:48:37;7.00;99.90
62339;DHT22;48368;53.406;6.214;2023-04-03T08:51:14;7.00;99.90
62339;DHT22;48368;53.406;6.214;2023-04-03T08:53:46;7.00;99.90
62339;DHT22;48368;53.406;6.214;2023-04-03T08:56:17;7.20;99.90
62339;DHT22;48368;53.406;6.214;2023-04-03T08:58:50;7.30;99.90
62339;DHT22;48368;53.406;6.214;2023-04-03T09:01:33;7.40;99.90
62339;DHT22;48368;53.406;6.214;2023-04-03T09:04:01;7.50;99.90
62339;DHT22;48368;53.406;6.214;2023-04-03T09:06:31;7.70;99.90
62339;DHT22;48368;53.406;6.214;2023-04-03T09:09:12;7.80;99.90
62339;DHT22;48368;53.406;6.214;2023-04-03T09:14:22;8.00;99.90
62339;DHT22;48368;53.406;6.214;2023-04-03T09:16:59;8.10;99.90
62339;DHT22;48368;53.406;6.214;2023-04-03T09:22:17;8.00;99.90
62339;DHT22;48368;53.406;6.214;2023-04-03T09:24:50;7.90;99.90
62339;DHT22;48368;53.406;6.214;2023-04-03T09:27:21;8.20;99.90
62339;DHT22;48368;53.406;6.214;2023-04-03T09:29:55;8.40;99.90
62339;DHT22;48368;53.406;6.214;2023-04-03T09:32:29;8.50;99.90
62339;DHT22;48368;53.406;6.214;2023-04-03T09:35:10;8.50;99.90
62339;DHT22;48368;53.406;6.214;2023-04-03T09:37:40;8.60;99.90
62339;DHT22;48368;53.406;6.214;2023-04-03T09:45:26;8.90;99.90
62339;DHT22;48368;53.406;6.214;2023-04-03T09:48:07;9.10;99.90
62339;DHT22;48368;53.406;6.214;2023-04-03T09:50:35;8.80;99.60
62339;DHT22;48368;53.406;6.214;2023-04-03T09:53:07;8.90;99.90
62339;DHT22;48368;53.406;6.214;2023-04-03T09:55:50;8.90;99.90
62339;DHT22;48368;53.406;6.214;2023-04-03T09:58:39;8.70;99.90
62339;DHT22;48368;53.406;6.214;2023-04-03T10:01:41;8.70;99.90
62339;DHT22;48368;53.406;6.214;2023-04-03T10:04:12;8.80;98.20
62339;DHT22;48368;53.406;6.214;2023-04-03T10:06:53;9.20;99.90
62339;DHT22;48368;53.406;6.214;2023-04-03T10:09:31;9.20;99.60
62339;DHT22;48368;53.406;6.214;2023-04-03T10:12:09;9.50;98.30
62339;DHT22;48368;53.406;6.214;2023-04-03T10:14:58;9.70;99.90
62339;DHT22;48368;53.406;6.214;2023-04-03T10:17:36;9.60;95.90
62339;DHT22;48368;53.406;6.214;2023-04-03T10:26:01;9.50;96.10
62339;DHT22;48368;53.406;6.214;2023-04-03T10:28:24;9.70;96.40
62339;DHT22;48368;53.406;6.214;2023-04-03T10:36:56;9.90;95.70
62339;DHT22;48368;53.406;6.214;2023-04-03T10:39:31;10.00;96.80
62339;DHT22;48368;53.406;6.214;2023-04-03T10:42:13;10.10;95.70
62339;DHT22;48368;53.406;6.214;2023-04-03T10:51:15;9.80;96.70
62339;DHT22;48368;53.406;6.214;2023-04-03T10:56:35;9.50;99.60
62339;DHT22;48368;53.406;6.214;2023-04-03T11:01:46;9.80;99.90
62339;DHT22;48368;53.406;6.214;2023-04-03T11:04:13;9.80;98.70
62339;DHT22;48368;53.406;6.214;2023-04-03T11:06:47;10.00;99.90
62339;DHT22;48368;53.406;6.214;2023-04-03T11:09:24;9.50;99.30
62339;DHT22;48368;53.406;6.214;2023-04-03T11:11:55;9.40;99.90
62339;DHT22;48368;53.406;6.214;2023-04-03T11:14:36;9.40;98.70
62339;DHT22;48368;53.406;6.214;2023-04-03T11:25:34;9.20;99.50
62339;DHT22;48368;53.406;6.214;2023-04-03T11:33:12;9.00;99.90
62339;DHT22;48368;53.406;6.214;2023-04-03T11:35:47;9.10;99.90
62339;DHT22;48368;53.406;6.214;2023-04-03T11:38:29;8.80;98.80
62339;DHT22;48368;53.406;6.214;2023-04-03T11:40:57;9.20;99.90
62339;DHT22;48368;53.406;6.214;2023-04-03T11:43:32;9.20;99.90
62339;DHT22;48368;53.406;6.214;2023-04-03T11:46:00;9.70;99.90
62339;DHT22;48368;53.406;6.214;2023-04-03T11:53:38;9.40;99.20
62339;DHT22;48368;53.406;6.214;2023-04-03T12:01:55;10.20;99.90
62339;DHT22;48368;53.406;6.214;2023-04-03T12:04:26;9.80;99.20
62339;DHT22;48368;53.406;6.214;2023-04-03T12:07:01;9.20;99.40
62339;DHT22;48368;53.406;6.214;2023-04-03T12:09:34;9.60;99.90
62339;DHT22;48368;53.406;6.214;2023-04-03T12:12:20;9.80;98.90
62339;DHT22;48368;53.406;6.214;2023-04-03T12:14:46;9.50;99.90
62339;DHT22;48368;53.406;6.214;2023-04-03T12:17:22;9.30;99.90
62339;DHT22;48368;53.406;6.214;2023-04-03T12:19:50;9.60;99.90
62339;DHT22;48368;53.406;6.214;2023-04-03T12:22:18;9.60;99.90
62339;DHT22;48368;53.406;6.214;2023-04-03T12:24:49;9.70;99.90
62339;DHT22;48368;53.406;6.214;2023-04-03T12:27:33;9.30;99.90
62339;DHT22;48368;53.406;6.214;2023-04-03T12:30:16;9.30;99.90
62339;DHT22;48368;53.406;6.214;2023-04-03T12:33:04;9.30;99.90
62339;DHT22;48368;53.406;6.214;2023-04-03T12:35:39;9.40;99.90
62339;DHT22;48368;53.406;6.214;2023-04-03T12:48:48;9.70;99.90
62339;DHT22;48368;53.406;6.214;2023-04-03T12:53:47;9.60;98.90
62339;DHT22;48368;53.406;6.214;2023-04-03T12:56:29;9.70;99.40
62339;DHT22;48368;53.406;6.214;2023-04-03T12:59:12;9.60;98.30
62339;DHT22;48368;53.406;6.214;2023-04-03T13:01:42;9.50;99.40
62339;DHT22;48368;53.406;6.214;2023-04-03T13:04:10;9.50;97.70
62339;DHT22;48368;53.406;6.214;2023-04-03T13:06:42;9.60;99.90
62339;DHT22;48368;53.406;6.214;2023-04-03T13:09:29;9.50;98.50
62339;DHT22;48368;53.406;6.214;2023-04-03T13:12:00;9.20;98.60
62339;DHT22;48368;53.406;6.214;2023-04-03T13:14:27;9.30;98.70
62339;DHT22;48368;53.406;6.214;2023-04-03T13:17:10;9.50;99.30
62339;DHT22;48368;53.406;6.214;2023-04-03T13:19:38;9.60;99.50
62339;DHT22;48368;53.406;6.214;2023-04-03T13:25:11;9.70;98.60
62339;DHT22;48368;53.406;6.214;2023-04-03T13:27:39;9.60;97.90
62339;DHT22;48368;53.406;6.214;2023-04-03T13:30:32;9.40;98.90
62339;DHT22;48368;53.406;6.214;2023-04-03T13:33:03;9.30;98.60
62339;DHT22;48368;53.406;6.214;2023-04-03T13:35:36;9.50;99.70
62339;DHT22;48368;53.406;6.214;2023-04-03T13:40:56;9.20;99.90
62339;DHT22;48368;53.406;6.214;2023-04-03T13:43:25;9.60;99.90
62339;DHT22;48368;53.406;6.214;2023-04-03T13:46:38;9.70;99.90
62339;DHT22;48368;53.406;6.214;2023-04-03T13:48:45;9.90;99.90
62339;DHT22;48368;53.406;6.214;2023-04-03T13:53:49;9.40;99.90
62339;DHT22;48368;53.406;6.214;2023-04-03T14:04:26;9.20;99.90
62339;DHT22;48368;53.406;6.214;2023-04-03T14:06:53;9.10;99.90
62339;DHT22;48368;53.406;6.214;2023-04-03T14:09:20;9.20;99.90
62339;DHT22;48368;53.406;6.214;2023-04-03T14:11:48;9.30;99.90
62339;DHT22;48368;53.406;6.214;2023-04-03T14:14:21;9.20;99.90
62339;DHT22;48368;53.406;6.214;2023-04-03T14:16:55;9.00;99.90
62339;DHT22;48368;53.406;6.214;2023-04-03T14:19:31;9.00;99.90
62339;DHT22;48368;53.406;6.214;2023-04-03T14:21:59;9.00;99.90
62339;DHT22;48368;53.406;6.214;2023-04-03T14:24:25;9.20;99.90
62339;DHT22;48368;53.406;6.214;2023-04-03T14:26:54;9.10;99.90
62339;DHT22;48368;53.406;6.214;2023-04-03T14:29:21;9.30;99.90
62339;DHT22;48368;53.406;6.214;2023-04-03T14:31:49;8.90;99.90
62339;DHT22;48368;53.406;6.214;2023-04-03T14:34:15;8.90;99.90
62339;DHT22;48368;53.406;6.214;2023-04-03T14:36:42;8.90;99.90
62339;DHT22;48368;53.406;6.214;2023-04-03T14:39:15;8.90;99.90
62339;DHT22;48368;53.406;6.214;2023-04-03T14:41:42;9.00;99.90
62339;DHT22;48368;53.406;6.214;2023-04-03T14:44:07;8.80;99.90
62339;DHT22;48368;53.406;6.214;2023-04-03T14:46:36;8.60;98.60
62339;DHT22;48368;53.406;6.214;2023-04-03T14:49:06;8.80;99.90
62339;DHT22;48368;53.406;6.214;2023-04-03T14:51:37;8.80;99.90
62339;DHT22;48368;53.406;6.214;2023-04-03T14:54:03;8.90;99.80
62339;DHT22;48368;53.406;6.214;2023-04-03T14:56:29;8.90;99.20
62339;DHT22;48368;53.406;6.214;2023-04-03T14:58:59;8.90;99.00
62339;DHT22;48368;53.406;6.214;2023-04-03T15:01:26;8.60;97.60
62339;DHT22;48368;53.406;6.214;2023-04-03T15:03:52;8.70;98.40
62339;DHT22;48368;53.406;6.214;2023-04-03T15:06:18;8.60;98.00
62339;DHT22;48368;53.406;6.214;2023-04-03T15:08:46;8.50;98.00
62339;DHT22;48368;53.406;6.214;2023-04-03T15:11:12;8.40;97.90
62339;DHT22;48368;53.406;6.214;2023-04-03T15:13:39;8.50;98.70
62339;DHT22;48368;53.406;6.214;2023-04-03T15:16:06;8.40;99.20
62339;DHT22;48368;53.406;6.214;2023-04-03T15:18:37;8.30;98.90
62339;DHT22;48368;53.406;6.214;2023-04-03T15:21:04;8.40;99.70
62339;DHT22;48368;53.406;6.214;2023-04-03T15:23:30;8.30;99.60
62339;DHT22;48368;53.406;6.214;2023-04-03T15:25:56;8.30;99.90
62339;DHT22;48368;53.406;6.214;2023-04-03T15:28:35;8.40;99.80
62339;DHT22;48368;53.406;6.214;2023-04-03T15:31:04;8.30;99.90
62339;DHT22;48368;53.406;6.214;2023-04-03T15:33:31;8.30;99.90
62339;DHT22;48368;53.406;6.214;2023-04-03T15:35:57;8.30;99.90
62339;DHT22;48368;53.406;6.214;2023-04-03T15:38:23;8.30;99.90
62339;DHT22;48368;53.406;6.214;2023-04-03T15:40:48;8.10;99.90
62339;DHT22;48368;53.406;6.214;2023-04-03T15:43:14;8.10;99.90
62339;DHT22;48368;53.406;6.214;2023-04-03T15:45:40;8.00;99.90
62339;DHT22;48368;53.406;6.214;2023-04-03T15:48:07;8.00;99.90
62339;DHT22;48368;53.406;6.214;2023-04-03T15:50:33;8.10;99.90
62339;DHT22;48368;53.406;6.214;2023-04-03T15:53:00;8.10;99.90
62339;DHT22;48368;53.406;6.214;2023-04-03T15:55:29;8.00;99.90
62339;DHT22;48368;53.406;6.214;2023-04-03T15:57:55;7.90;99.90
62339;DHT22;48368;53.406;6.214;2023-04-03T16:00:22;7.80;99.90
62339;DHT22;48368;53.406;6.214;2023-04-03T16:02:51;7.70;99.90
62339;DHT22;48368;53.406;6.214;2023-04-03T16:05:18;7.60;99.90
62339;DHT22;48368;53.406;6.214;2023-04-03T16:07:44;7.70;99.90
62339;DHT22;48368;53.406;6.214;2023-04-03T16:10:12;7.60;99.90
62339;DHT22;48368;53.406;6.214;2023-04-03T16:12:38;7.50;99.90
62339;DHT22;48368;53.406;6.214;2023-04-03T16:15:04;7.40;99.90
62339;DHT22;48368;53.406;6.214;2023-04-03T16:17:32;7.40;99.90
62339;DHT22;48368;53.406;6.214;2023-04-03T16:19:58;7.40;99.90
62339;DHT22;48368;53.406;6.214;2023-04-03T16:22:26;7.30;99.90
62339;DHT22;48368;53.406;6.214;2023-04-03T16:24:52;7.30;99.90
62339;DHT22;48368;53.406;6.214;2023-04-03T16:27:22;7.20;99.90
62339;DHT22;48368;53.406;6.214;2023-04-03T16:29:53;7.20;99.90
62339;DHT22;48368;53.406;6.214;2023-04-03T16:32:20;7.10;99.90
62339;DHT22;48368;53.406;6.214;2023-04-03T16:34:45;7.10;99.90
62339;DHT22;48368;53.406;6.214;2023-04-03T16:37:11;7.00;99.90
62339;DHT22;48368;53.406;6.214;2023-04-03T16:39:37;7.10;99.90
62339;DHT22;48368;53.406;6.214;2023-04-03T16:42:03;7.00;99.90
62339;DHT22;48368;53.406;6.214;2023-04-03T16:44:29;7.00;99.90
62339;DHT22;48368;53.406;6.214;2023-04-03T16:46:56;6.90;99.90
62339;DHT22;48368;53.406;6.214;2023-04-03T16:49:21;6.90;99.90
62339;DHT22;48368;53.406;6.214;2023-04-03T16:51:48;7.00;99.90
62339;DHT22;48368;53.406;6.214;2023-04-03T16:54:14;7.00;99.90
62339;DHT22;48368;53.406;6.214;2023-04-03T16:56:40;6.80;99.90
62339;DHT22;48368;53.406;6.214;2023-04-03T16:59:06;6.90;99.90
62339;DHT22;48368;53.406;6.214;2023-04-03T17:01:32;6.80;99.90
62339;DHT22;48368;53.406;6.214;2023-04-03T17:03:58;6.60;99.90
62339;DHT22;48368;53.406;6.214;2023-04-03T17:06:24;6.60;99.90
62339;DHT22;48368;53.406;6.214;2023-04-03T17:08:51;6.70;99.90
62339;DHT22;48368;53.406;6.214;2023-04-03T17:11:17;6.60;99.90
62339;DHT22;48368;53.406;6.214;2023-04-03T17:13:42;6.60;99.90
62339;DHT22;48368;53.406;6.214;2023-04-03T17:16:12;6.50;99.90
62339;DHT22;48368;53.406;6.214;2023-04-03T17:18:39;6.50;99.90
62339;DHT22;48368;53.406;6.214;2023-04-03T17:21:05;6.40;99.90
62339;DHT22;48368;53.406;6.214;2023-04-03T17:23:32;6.40;99.90
62339;DHT22;48368;53.406;6.214;2023-04-03T17:26:02;6.30;99.90
62339;DHT22;48368;53.406;6.214;2023-04-03T17:28:28;6.20;99.90
62339;DHT22;48368;53.406;6.214;2023-04-03T17:30:59;6.20;99.90
62339;DHT22;48368;53.406;6.214;2023-04-03T17:33:25;6.20;99.90